createdAt,value
2019-03-15T00:00:57.070Z,7.30
2019-03-15T00:03:49.041Z,7.30
2019-03-15T00:06:40.646Z,7.30
2019-03-15T00:09:32.016Z,7.30
2019-03-15T00:12:23.839Z,7.40
2019-03-15T00:15:15.707Z,7.40
2019-03-15T00:18:07.397Z,7.40
2019-03-15T00:20:58.990Z,7.40
2019-03-15T00:23:50.731Z,7.40
2019-03-15T00:26:42.395Z,7.50
2019-03-15T00:29:33.838Z,7.50
2019-03-15T00:32:25.315Z,7.50
2019-03-15T00:35:16.989Z,7.60
2019-03-15T00:38:08.497Z,7.60
2019-03-15T00:41:00.278Z,7.70
2019-03-15T00:43:51.910Z,7.80
2019-03-15T00:46:43.482Z,7.90
2019-03-15T00:49:34.963Z,8.00
2019-03-15T00:52:26.727Z,8.10
2019-03-15T00:55:18.405Z,8.10
2019-03-15T00:58:11.045Z,8.10
2019-03-15T01:01:02.854Z,8.10
2019-03-15T01:03:55.280Z,8.20
2019-03-15T01:06:46.780Z,8.20
2019-03-15T01:09:38.344Z,8.40
2019-03-15T01:12:30.866Z,8.50
2019-03-15T01:15:22.648Z,8.80
2019-03-15T01:18:14.403Z,8.90
2019-03-15T01:21:05.843Z,8.90
2019-03-15T01:23:57.363Z,8.90
2019-03-15T01:26:49.128Z,8.90
2019-03-15T01:29:40.756Z,8.70
2019-03-15T01:32:32.588Z,8.70
2019-03-15T01:35:25.027Z,8.60
2019-03-15T01:38:16.577Z,8.50
2019-03-15T01:41:08.263Z,8.40
2019-03-15T01:44:00.212Z,8.40
2019-03-15T01:46:52.728Z,8.30
2019-03-15T01:49:45.483Z,8.20
2019-03-15T01:52:37.283Z,8.20
2019-03-15T01:55:28.783Z,8.10
2019-03-15T01:58:20.440Z,8.00
2019-03-15T02:01:12.903Z,7.90
2019-03-15T02:04:05.615Z,7.80
2019-03-15T02:06:57.699Z,7.80
2019-03-15T02:09:49.528Z,7.70
2019-03-15T02:12:41.124Z,7.70
2019-03-15T02:15:32.993Z,7.70
2019-03-15T02:18:24.333Z,7.60
2019-03-15T02:21:16.088Z,7.60
2019-03-15T02:24:07.872Z,7.60
2019-03-15T02:26:59.732Z,7.60
2019-03-15T02:29:51.498Z,7.60
2019-03-15T02:32:43.367Z,7.60
2019-03-15T02:35:35.122Z,7.60
2019-03-15T02:38:27.161Z,7.60
2019-03-15T02:41:19.755Z,7.60
2019-03-15T02:44:12.356Z,7.60
2019-03-15T02:47:04.477Z,7.60
2019-03-15T02:49:56.685Z,7.60
2019-03-15T02:52:48.330Z,7.60
2019-03-15T02:55:39.916Z,7.60
2019-03-15T02:58:31.283Z,7.50
2019-03-15T03:01:23.031Z,7.60
2019-03-15T03:04:14.570Z,7.60
2019-03-15T03:07:06.022Z,7.70
2019-03-15T03:09:57.555Z,7.80
2019-03-15T03:12:49.306Z,7.80
2019-03-15T03:15:41.542Z,7.90
2019-03-15T03:18:34.576Z,8.00
2019-03-15T03:21:26.520Z,8.00
2019-03-15T03:24:18.402Z,8.10
2019-03-15T03:27:09.999Z,8.20
2019-03-15T03:30:01.447Z,8.20
2019-03-15T03:32:52.829Z,8.30
2019-03-15T03:35:44.786Z,8.40
2019-03-15T03:38:36.481Z,8.40
2019-03-15T03:41:28.329Z,8.50
2019-03-15T03:44:20.214Z,8.50
2019-03-15T03:47:11.623Z,8.60
2019-03-15T03:50:03.644Z,8.70
2019-03-15T03:52:55.366Z,8.80
2019-03-15T03:55:47.208Z,8.80
2019-03-15T03:58:39.784Z,8.90
2019-03-15T04:01:31.266Z,9.00
2019-03-15T04:04:22.943Z,9.10
2019-03-15T04:07:14.925Z,9.10
2019-03-15T04:10:07.273Z,9.20
2019-03-15T04:12:58.886Z,9.20
2019-03-15T04:15:50.582Z,9.30
2019-03-15T04:18:42.421Z,9.40
2019-03-15T04:21:34.194Z,9.50
2019-03-15T04:24:26.405Z,9.50
2019-03-15T04:27:18.198Z,9.60
2019-03-15T04:30:10.283Z,9.70
2019-03-15T04:33:01.874Z,9.70
2019-03-15T04:35:53.702Z,9.90
2019-03-15T04:38:45.430Z,9.90
2019-03-15T04:41:36.963Z,10.00
2019-03-15T04:44:28.835Z,10.00
2019-03-15T04:47:21.353Z,10.10
2019-03-15T04:50:14.494Z,10.10
2019-03-15T04:53:05.964Z,10.20
2019-03-15T04:55:57.450Z,10.20
2019-03-15T04:58:49.205Z,10.20
2019-03-15T05:01:40.915Z,10.30
2019-03-15T05:04:32.477Z,10.30
2019-03-15T05:07:24.124Z,10.30
2019-03-15T05:10:16.494Z,10.30
2019-03-15T05:13:08.163Z,10.30
2019-03-15T05:15:59.908Z,10.40
2019-03-15T05:18:51.579Z,10.40
2019-03-15T05:21:43.043Z,10.40
2019-03-15T05:24:34.847Z,10.40
2019-03-15T05:27:26.390Z,10.40
2019-03-15T05:30:18.955Z,10.40
2019-03-15T05:33:10.731Z,10.40
2019-03-15T05:36:02.258Z,10.40
2019-03-15T05:38:54.179Z,10.40
2019-03-15T05:41:45.822Z,10.40
2019-03-15T05:44:37.400Z,10.40
2019-03-15T05:47:28.923Z,10.40
2019-03-15T05:50:21.233Z,10.40
2019-03-15T05:53:13.076Z,10.40
2019-03-15T05:56:04.958Z,10.40
2019-03-15T05:58:56.429Z,10.50
2019-03-15T06:01:48.053Z,10.50
2019-03-15T06:04:39.869Z,10.50
2019-03-15T06:07:31.361Z,10.50
2019-03-15T06:10:23.024Z,10.50
2019-03-15T06:13:14.647Z,10.50
2019-03-15T06:16:06.517Z,10.50
2019-03-15T06:18:57.995Z,10.50
2019-03-15T06:21:49.520Z,10.50
2019-03-15T06:24:41.133Z,10.50
2019-03-15T06:27:32.783Z,10.50
2019-03-15T06:30:24.496Z,10.60
2019-03-15T06:33:16.058Z,10.60
2019-03-15T06:36:07.621Z,10.70
2019-03-15T06:38:59.691Z,10.70
2019-03-15T06:41:51.032Z,10.70
2019-03-15T06:44:43.043Z,10.70
2019-03-15T06:47:34.635Z,10.70
2019-03-15T06:50:26.191Z,10.80
2019-03-15T06:53:17.772Z,10.80
2019-03-15T06:56:10.957Z,10.80
2019-03-15T06:59:02.966Z,10.80
2019-03-15T07:01:54.541Z,10.80
2019-03-15T07:04:46.181Z,10.80
2019-03-15T07:07:37.725Z,10.80
2019-03-15T07:10:29.113Z,10.90
2019-03-15T07:13:20.911Z,10.90
2019-03-15T07:16:12.484Z,10.90
2019-03-15T07:19:03.937Z,10.90
2019-03-15T07:21:55.456Z,10.90
2019-03-15T07:24:46.836Z,11.00
2019-03-15T07:27:41.817Z,11.00
2019-03-15T07:30:31.439Z,11.00
2019-03-15T07:33:23.651Z,11.00
2019-03-15T07:36:15.309Z,11.00
2019-03-15T07:39:07.990Z,11.10
2019-03-15T07:42:00.215Z,11.10
2019-03-15T07:44:52.478Z,11.10
2019-03-15T07:47:44.145Z,11.10
2019-03-15T07:50:35.765Z,11.20
2019-03-15T07:53:27.332Z,11.20
2019-03-15T07:56:19.024Z,11.30
2019-03-15T07:59:10.581Z,11.30
2019-03-15T08:02:02.703Z,11.30
2019-03-15T08:04:55.169Z,11.40
2019-03-15T08:07:46.504Z,11.40
2019-03-15T08:10:38.586Z,11.40
2019-03-15T08:13:30.185Z,11.40
2019-03-15T08:16:22.171Z,11.40
2019-03-15T08:19:13.689Z,11.50
2019-03-15T08:22:05.200Z,11.50
2019-03-15T08:24:56.753Z,11.50
2019-03-15T08:27:48.980Z,11.50
2019-03-15T08:30:41.159Z,11.60
2019-03-15T08:33:32.411Z,11.50
2019-03-15T08:36:24.034Z,11.60
2019-03-15T08:39:15.671Z,11.60
2019-03-15T08:42:08.487Z,11.60
2019-03-15T08:44:59.827Z,11.70
2019-03-15T08:47:51.355Z,11.70
2019-03-15T08:50:42.903Z,11.70
2019-03-15T08:53:34.633Z,11.80
2019-03-15T08:56:26.132Z,11.80
2019-03-15T08:59:19.106Z,11.80
2019-03-15T09:02:10.434Z,11.90
2019-03-15T09:05:02.102Z,11.90
2019-03-15T09:07:53.793Z,12.00
2019-03-15T09:10:45.875Z,12.00
2019-03-15T09:13:38.160Z,12.10
2019-03-15T09:16:30.185Z,12.10
2019-03-15T09:19:22.153Z,12.10
2019-03-15T09:22:13.532Z,12.20
2019-03-15T09:25:18.179Z,12.10
2019-03-15T09:27:58.387Z,12.20
2019-03-15T09:30:50.667Z,12.30
2019-03-15T09:33:42.331Z,12.40
2019-03-15T09:36:34.049Z,12.40
2019-03-15T09:39:26.292Z,12.40
2019-03-15T09:42:17.615Z,12.50
2019-03-15T09:45:10.644Z,12.60
2019-03-15T09:48:01.880Z,12.70
2019-03-15T09:50:53.346Z,12.80
2019-03-15T09:53:44.904Z,12.80
2019-03-15T09:56:36.898Z,12.80
2019-03-15T09:59:28.326Z,12.80
2019-03-15T10:02:29.672Z,12.80
2019-03-15T10:05:13.286Z,12.80
2019-03-15T10:08:05.299Z,12.80
2019-03-15T10:10:56.637Z,12.80
2019-03-15T10:13:47.951Z,12.80
2019-03-15T10:16:39.476Z,12.80
2019-03-15T10:19:30.835Z,12.90
2019-03-15T10:22:22.214Z,12.90
2019-03-15T10:25:13.539Z,12.90
2019-03-15T10:28:05.636Z,12.90
2019-03-15T10:30:57.307Z,12.90
2019-03-15T10:33:50.839Z,12.90
2019-03-15T10:36:42.907Z,12.90
2019-03-15T10:39:34.486Z,12.90
2019-03-15T10:42:26.745Z,12.80
2019-03-15T10:45:18.282Z,12.80
2019-03-15T10:48:09.868Z,12.80
2019-03-15T10:51:02.016Z,12.90
2019-03-15T10:53:54.985Z,12.90
2019-03-15T10:56:47.133Z,12.90
2019-03-15T10:59:38.550Z,12.90
2019-03-15T11:02:29.970Z,13.00
2019-03-15T11:05:22.198Z,13.00
2019-03-15T11:08:13.484Z,13.10
2019-03-15T11:11:05.147Z,13.20
2019-03-15T11:13:56.453Z,13.20
2019-03-15T11:16:48.153Z,13.20
2019-03-15T11:19:39.940Z,13.30
2019-03-15T11:22:31.851Z,13.40
2019-03-15T11:25:23.668Z,13.40
2019-03-15T11:28:16.069Z,13.40
2019-03-15T11:31:07.539Z,13.50
2019-03-15T11:33:58.890Z,13.60
2019-03-15T11:36:58.240Z,13.50
2019-03-15T11:39:44.457Z,13.50
2019-03-15T11:42:35.892Z,13.50
2019-03-15T11:45:27.551Z,13.50
2019-03-15T11:48:19.006Z,13.50
2019-03-15T11:51:10.662Z,13.50
2019-03-15T11:54:01.993Z,13.50
2019-03-15T11:56:53.281Z,13.50
2019-03-15T11:59:44.965Z,13.50
2019-03-15T12:02:36.437Z,13.50
2019-03-15T12:05:28.038Z,13.50
2019-03-15T12:08:19.793Z,13.50
2019-03-15T12:11:11.882Z,13.30
2019-03-15T12:14:03.541Z,13.30
2019-03-15T12:16:55.479Z,13.30
2019-03-15T12:19:47.098Z,13.20
2019-03-15T12:22:38.900Z,13.20
2019-03-15T12:25:31.491Z,13.20
2019-03-15T12:28:22.932Z,13.20
2019-03-15T12:31:14.212Z,13.20
2019-03-15T12:34:05.730Z,13.20
2019-03-15T12:36:57.127Z,13.20
2019-03-15T12:39:48.769Z,13.30
2019-03-15T12:42:40.213Z,13.30
2019-03-15T12:45:31.569Z,13.30
2019-03-15T12:48:23.130Z,13.30
2019-03-15T12:51:14.993Z,13.30
2019-03-15T12:54:06.713Z,13.40
2019-03-15T12:56:58.697Z,13.40
2019-03-15T12:59:50.091Z,13.50
2019-03-15T13:02:41.505Z,13.60
2019-03-15T13:05:33.274Z,13.60
2019-03-15T13:08:24.973Z,13.50
2019-03-15T13:11:16.668Z,13.40
2019-03-15T13:14:08.085Z,13.30
2019-03-15T13:16:59.587Z,13.30
2019-03-15T13:19:55.310Z,13.20
2019-03-15T13:22:43.971Z,13.20
2019-03-15T13:25:35.495Z,13.10
2019-03-15T13:28:27.123Z,13.10
2019-03-15T13:31:18.489Z,13.10
2019-03-15T13:34:10.954Z,13.10
2019-03-15T13:37:02.489Z,13.10
2019-03-15T13:39:54.913Z,13.10
2019-03-15T13:42:46.386Z,13.10
2019-03-15T13:45:38.172Z,13.00
2019-03-15T13:48:29.793Z,13.00
2019-03-15T13:51:22.701Z,12.90
2019-03-15T13:54:14.386Z,12.90
2019-03-15T13:57:06.002Z,12.80
2019-03-15T13:59:57.478Z,12.70
2019-03-15T14:02:49.264Z,12.70
2019-03-15T14:05:41.172Z,12.70
2019-03-15T14:08:32.852Z,12.70
2019-03-15T14:11:24.232Z,12.70
2019-03-15T14:14:15.681Z,12.80
2019-03-15T14:17:07.168Z,12.80
2019-03-15T14:19:58.624Z,12.80
2019-03-15T14:22:50.386Z,12.70
2019-03-15T14:25:41.880Z,12.70
2019-03-15T14:28:34.380Z,12.60
2019-03-15T14:31:26.124Z,12.60
2019-03-15T14:34:17.589Z,12.50
2019-03-15T14:37:10.414Z,12.50
2019-03-15T14:40:02.712Z,12.50
2019-03-15T14:42:54.541Z,12.50
2019-03-15T14:45:46.451Z,12.50
2019-03-15T14:48:37.923Z,12.50
2019-03-15T14:51:29.744Z,12.50
2019-03-15T14:54:21.899Z,12.50
2019-03-15T14:57:14.026Z,12.50
2019-03-15T15:00:11.044Z,12.50
2019-03-15T15:03:01.897Z,12.50
2019-03-15T15:05:53.560Z,12.50
2019-03-15T15:08:44.990Z,12.50
2019-03-15T15:11:36.717Z,12.50
2019-03-15T15:14:28.145Z,12.50
2019-03-15T15:17:20.366Z,12.40
2019-03-15T15:20:12.215Z,12.40
2019-03-15T15:23:03.638Z,12.40
2019-03-15T15:25:56.116Z,12.40
2019-03-15T15:28:47.771Z,12.40
2019-03-15T15:31:39.091Z,12.40
2019-03-15T15:34:30.772Z,12.30
2019-03-15T15:37:22.077Z,12.40
2019-03-15T15:40:14.459Z,12.40
2019-03-15T15:43:05.865Z,12.40
2019-03-15T15:45:58.264Z,12.40
2019-03-15T15:48:49.720Z,12.40
2019-03-15T15:51:41.118Z,12.40
2019-03-15T15:54:32.744Z,12.50
2019-03-15T15:57:24.371Z,12.40
2019-03-15T16:00:15.806Z,12.50
2019-03-15T16:03:07.577Z,12.50
2019-03-15T16:05:59.123Z,12.40
2019-03-15T16:08:50.777Z,12.40
2019-03-15T16:11:42.167Z,12.40
2019-03-15T16:14:33.587Z,12.40
2019-03-15T16:17:25.408Z,12.40
2019-03-15T16:20:17.922Z,12.40
2019-03-15T16:23:09.560Z,12.40
2019-03-15T16:26:01.233Z,12.40
2019-03-15T16:28:52.995Z,12.40
2019-03-15T16:31:46.018Z,12.40
2019-03-15T16:34:37.466Z,12.40
2019-03-15T16:37:29.133Z,12.30
2019-03-15T16:40:20.682Z,12.30
2019-03-15T16:43:12.483Z,12.30
2019-03-15T16:46:04.334Z,12.30
2019-03-15T16:48:55.772Z,12.30
2019-03-15T16:51:47.590Z,12.20
2019-03-15T16:54:39.378Z,12.20
2019-03-15T16:57:31.243Z,12.30
2019-03-15T17:00:23.042Z,12.30
2019-03-15T17:03:14.817Z,12.30
2019-03-15T17:06:06.535Z,12.30
2019-03-15T17:08:58.083Z,12.30
2019-03-15T17:11:49.941Z,12.30
2019-03-15T17:14:41.980Z,12.20
2019-03-15T17:17:33.910Z,12.20
2019-03-15T17:20:25.766Z,12.10
2019-03-15T17:23:17.539Z,12.20
2019-03-15T17:26:09.289Z,12.20
2019-03-15T17:29:01.343Z,12.20
2019-03-15T17:31:53.100Z,12.10
2019-03-15T17:34:44.692Z,12.10
2019-03-15T17:37:36.330Z,12.10
2019-03-15T17:40:27.813Z,12.10
2019-03-15T17:43:19.541Z,12.00
2019-03-15T17:46:12.937Z,12.10
2019-03-15T17:49:04.914Z,12.10
2019-03-15T17:51:56.724Z,12.10
2019-03-15T17:54:48.446Z,12.10
2019-03-15T17:57:40.215Z,12.10
2019-03-15T18:00:37.195Z,12.10
2019-03-15T18:03:28.575Z,12.10
2019-03-15T18:06:20.317Z,12.10
2019-03-15T18:09:11.748Z,12.10
2019-03-15T18:12:03.138Z,12.00
2019-03-15T18:14:55.291Z,12.00
2019-03-15T18:17:47.496Z,11.90
2019-03-15T18:20:38.904Z,11.90
2019-03-15T18:23:31.019Z,11.90
2019-03-15T18:26:23.452Z,11.90
2019-03-15T18:29:25.622Z,11.90
2019-03-15T18:32:08.229Z,11.80
2019-03-15T18:34:59.896Z,11.70
2019-03-15T18:37:51.463Z,11.70
2019-03-15T18:40:43.439Z,11.70
2019-03-15T18:43:35.643Z,11.80
2019-03-15T18:46:27.255Z,11.80
2019-03-15T18:49:19.462Z,11.80
2019-03-15T18:52:11.324Z,11.80
2019-03-15T18:55:02.621Z,11.80
2019-03-15T18:57:54.149Z,11.80
2019-03-15T19:00:45.886Z,11.70
2019-03-15T19:03:37.516Z,11.80
2019-03-15T19:06:29.029Z,11.80
2019-03-15T19:09:20.685Z,11.80
2019-03-15T19:12:12.306Z,11.80
2019-03-15T19:15:03.928Z,11.80
2019-03-15T19:17:55.652Z,11.80
2019-03-15T19:20:47.073Z,11.80
2019-03-15T19:23:38.529Z,11.80
2019-03-15T19:26:30.759Z,11.80
2019-03-15T19:29:22.397Z,11.80
2019-03-15T19:32:13.709Z,11.80
2019-03-15T19:35:05.257Z,11.80
2019-03-15T19:37:56.752Z,11.70
2019-03-15T19:40:48.420Z,11.70
2019-03-15T19:43:40.837Z,11.70
2019-03-15T19:46:32.569Z,11.80
2019-03-15T19:49:24.519Z,11.70
2019-03-15T19:52:16.138Z,11.70
2019-03-15T19:55:08.478Z,11.70
2019-03-15T19:58:00.000Z,11.70
2019-03-15T20:00:52.351Z,11.70
2019-03-15T20:03:44.604Z,11.70
2019-03-15T20:06:37.126Z,11.70
2019-03-15T20:09:28.700Z,11.70
2019-03-15T20:12:20.027Z,11.70
2019-03-15T20:15:12.409Z,11.70
2019-03-15T20:18:03.995Z,11.70
2019-03-15T20:20:55.596Z,11.70
2019-03-15T20:23:47.288Z,11.70
2019-03-15T20:26:40.054Z,11.70
2019-03-15T20:29:31.430Z,11.70
2019-03-15T20:32:22.902Z,11.70
2019-03-15T20:35:14.522Z,11.70
2019-03-15T20:38:06.209Z,11.70
2019-03-15T20:40:58.465Z,11.60
2019-03-15T20:43:50.200Z,11.60
2019-03-15T20:46:41.889Z,11.60
2019-03-15T20:49:36.307Z,11.60
2019-03-15T20:52:26.493Z,11.60
2019-03-15T20:55:17.976Z,11.70
2019-03-15T20:58:09.632Z,11.60
2019-03-15T21:01:01.355Z,11.60
2019-03-15T21:03:56.358Z,11.60
2019-03-15T21:06:45.568Z,11.60
2019-03-15T21:09:37.943Z,11.60
2019-03-15T21:12:29.584Z,11.60
2019-03-15T21:15:21.319Z,11.50
2019-03-15T21:18:13.153Z,11.50
2019-03-15T21:21:04.464Z,11.40
2019-03-15T21:23:56.296Z,11.40
2019-03-15T21:26:47.743Z,11.30
2019-03-15T21:29:39.265Z,11.30
2019-03-15T21:32:31.677Z,11.20
2019-03-15T21:35:23.253Z,11.20
2019-03-15T21:38:14.818Z,11.20
2019-03-15T21:41:06.292Z,11.20
2019-03-15T21:43:58.011Z,11.20
2019-03-15T21:46:49.732Z,11.10
2019-03-15T21:49:42.601Z,11.10
2019-03-15T21:52:34.855Z,11.00
2019-03-15T21:55:26.547Z,11.00
2019-03-15T21:58:17.981Z,11.00
2019-03-15T22:01:09.406Z,10.90
2019-03-15T22:04:00.989Z,10.90
2019-03-15T22:06:52.737Z,10.90
2019-03-15T22:09:44.528Z,10.90
2019-03-15T22:12:36.466Z,10.90
2019-03-15T22:15:28.323Z,10.90
2019-03-15T22:18:20.158Z,10.80
2019-03-15T22:21:11.641Z,10.90
2019-03-15T22:24:03.194Z,10.90
2019-03-15T22:26:55.185Z,10.90
2019-03-15T22:29:53.487Z,10.90
2019-03-15T22:32:41.181Z,10.80
2019-03-15T22:35:32.834Z,10.80
2019-03-15T22:38:26.611Z,10.80
2019-03-15T22:41:17.695Z,10.80
2019-03-15T22:44:09.144Z,10.70
2019-03-15T22:47:00.771Z,10.70
2019-03-15T22:49:52.499Z,10.70
2019-03-15T22:52:44.052Z,10.70
2019-03-15T22:55:35.647Z,10.70
2019-03-15T22:58:27.195Z,10.70
2019-03-15T23:01:29.575Z,10.70
2019-03-15T23:04:11.694Z,10.70
2019-03-15T23:07:03.125Z,10.70
2019-03-15T23:09:55.483Z,10.70
2019-03-15T23:12:47.196Z,10.70
2019-03-15T23:15:38.591Z,10.70
2019-03-15T23:18:30.827Z,10.70
2019-03-15T23:21:22.460Z,10.70
2019-03-15T23:24:13.848Z,10.70
2019-03-15T23:27:05.391Z,10.70
2019-03-15T23:29:57.113Z,10.70
2019-03-15T23:32:48.895Z,10.70
2019-03-15T23:35:53.381Z,10.70
2019-03-15T23:38:33.654Z,10.70
2019-03-15T23:41:25.301Z,10.70
2019-03-15T23:44:17.531Z,10.70
2019-03-15T23:47:09.178Z,10.60
2019-03-15T23:50:01.743Z,10.60
2019-03-15T23:52:53.310Z,10.60
2019-03-15T23:55:44.707Z,10.60
2019-03-15T23:58:36.541Z,10.60
